Terminal Aerodrome Forecast
Issued by NWS

Home | Current Version | Previous Version | Text Only | Print | Product List | Glossary On
Versions: 1 2 3 4 5 6 7 8 9 10 11 12 13 14 15 16 17 18 19 20
000
FTUS42 TJSJ 231700
TAFJBQ
TAF
TJBQ 231728Z 2318/2418 15006KT P6SM VCSH SCT025 BKN050
     FM232300 09008KT P6SM SCT025
     FM241400 08013KT P6SM SCT025=

USA.gov is the U.S. government's official web portal to all federal, state and local government web resources and services.